This is the latest recevied weather packets stored in our database for station/object IW2NIA-3. If no packets are shown the sender has not sent any weather packets the latest 10 day(s).
| Time | Temp. | Humidity | Pressure | Rain* | Wind** | Luminosity | Snow |
|---|---|---|---|---|---|---|---|
| 1787519015 | 21.11° C | 79% | 1018.1 hPa | 0 mm | - | - | - |
| 1787518120 | 21.11° C | 80% | 1018.1 hPa | 0 mm | - | - | - |
| 1787517212 | 21.67° C | 79% | 1018 hPa | 0 mm | - | - | - |
| 1787516318 | 22.22° C | 78% | 1017.8 hPa | 0 mm | - | - | - |
| 1787515413 | 22.22° C | 77% | 1017.9 hPa | 0 mm | - | - | - |
| 1787514523 | 22.78° C | 75% | 1017.8 hPa | 0 mm | - | - | - |
| 1787513616 | 22.78° C | 75% | 1017.8 hPa | 0 mm | - | - | - |
| 1787512711 | 23.33° C | 74% | 1017.7 hPa | 0 mm | - | - | - |
| 1787511824 | 23.89° C | 73% | 1017.6 hPa | 0 mm | - | - | - |
| 1787510921 | 23.89° C | 72% | 1017.4 hPa | 0 mm | - | - | - |
| 1787510018 | 24.44° C | 69% | 1017.1 hPa | 0 mm | - | - | - |
| 1787509116 | 25° C | 67% | 1016.9 hPa | 0 mm | - | - | - |
| 1787508217 | 26.11° C | 60% | 1016.8 hPa | 0 mm | - | - | - |
| 1787507313 | 26.67° C | 57% | 1016.8 hPa | 0 mm | - | - | - |
| 1787506408 | 26.67° C | 55% | 1016.8 hPa | 0 mm | - | - | - |
| 1787505508 | 26.67° C | 53% | 1016.8 hPa | 0 mm | - | - | - |
| 1787504610 | 27.22° C | 52% | 1016.9 hPa | 0 mm | - | - | - |
| 1787503728 | 27.22° C | 50% | 1017.1 hPa | 0 mm | - | - | - |
| 1787502812 | 27.78° C | 48% | 1017.1 hPa | 0 mm | - | - | - |
| 1787501909 | 28.33° C | 49% | 1017 hPa | 0 mm | - | - | - |
| 1787501011 | 28.33° C | 50% | 1017.1 hPa | 0 mm | - | - | - |
| 1787500106 | 28.33° C | 48% | 1017.1 hPa | 0 mm | - | - | - |
| 1787499205 | 28.33° C | 47% | 1017.2 hPa | 0 mm | - | - | - |
| 1787498322 | 28.33° C | 50% | 1017.3 hPa | 0 mm | - | - | - |
| 1787497415 | 28.33° C | 51% | 1017.4 hPa | 0 mm | - | - | - |
* Rain latest hour (hover to see other rain measurements)
** Current wind speed in m/s (hover to see current wind gust speed)